Time;durP1;ratioP1;P1;durP2;ratioP2;P2;SDS_P1;SDS_P2;PMS_P1;PMS_P2;Temp;Humidity;BMP_temperature;BMP_pressure;BME280_temperature;BME280_humidity;BME280_pressure;Samples;Min_cycle;Max_cycle;Signal;HPM_P1;HPM_P2
2023/08/21 00:01:58;;;;;;;8.30;4.60;;;;;;;20.47;79.76;99124.55;104939;1267;72724;-21
2023/08/21 00:04:26;;;;;;;6.00;4.50;;;;;;;20.81;77.75;99121.17;105143;1269;61918;-22
2023/08/21 00:06:53;;;;;;;5.00;4.60;;;;;;;20.77;77.29;99118.70;105200;1269;61738;-22
2023/08/21 00:09:21;;;;;;;7.90;4.90;;;;;;;20.56;77.75;99120.32;104993;1267;73172;-22
2023/08/21 00:11:49;;;;;;;6.10;5.50;;;;;;;20.34;77.96;99122.49;105180;1269;75852;-22
2023/08/21 00:14:16;;;;;;;6.60;5.10;;;;;;;20.06;78.89;99121.24;104925;1266;72540;-22
2023/08/21 00:16:43;;;;;;;5.20;3.80;;;;;;;19.83;80.07;99120.02;105189;1267;61916;-22
2023/08/21 00:19:10;;;;;;;6.80;4.20;;;;;;;20.19;80.25;99121.39;104846;1265;61185;-22
2023/08/21 00:21:38;;;;;;;5.20;4.70;;;;;;;20.62;79.28;99121.88;104776;1267;74463;-22
2023/08/21 00:24:05;;;;;;;5.20;4.70;;;;;;;20.61;79.68;99123.55;104923;1269;75808;-22
2023/08/21 00:26:33;;;;;;;8.70;5.30;;;;;;;20.43;80.06;99123.61;104888;1267;74007;-22
2023/08/21 00:29:00;;;;;;;7.30;5.70;;;;;;;20.22;80.38;99121.44;105054;1264;61703;-22
2023/08/21 00:31:29;;;;;;;10.40;3.90;;;;;;;20.03;81.39;99121.38;104902;1269;61107;-22
2023/08/21 00:33:56;;;;;;;9.30;4.20;;;;;;;20.34;81.01;99122.95;105059;1266;72130;-22
2023/08/21 00:36:23;;;;;;;5.80;4.40;;;;;;;20.73;79.30;99120.23;105167;1267;74412;-22
2023/08/21 00:38:50;;;;;;;5.90;5.00;;;;;;;20.71;78.85;99116.15;104890;1269;72468;-22
2023/08/21 00:41:17;;;;;;;5.80;4.80;;;;;;;20.52;79.41;99120.64;104808;1267;61588;-21
2023/08/21 00:43:44;;;;;;;7.70;5.40;;;;;;;20.30;79.88;99117.48;104793;1265;61117;-22
2023/08/21 00:46:12;;;;;;;9.30;3.40;;;;;;;20.09;81.18;99119.86;104900;1267;74393;-22
2023/08/21 00:48:39;;;;;;;5.10;4.00;;;;;;;20.38;81.03;99123.72;104871;1267;76105;-22
2023/08/21 00:51:07;;;;;;;5.80;4.30;;;;;;;20.70;79.37;99120.75;104877;1267;73903;-22
2023/08/21 00:53:34;;;;;;;5.70;5.00;;;;;;;20.67;79.29;99120.71;104810;1267;61657;-22
2023/08/21 00:56:02;;;;;;;6.70;5.20;;;;;;;20.51;80.04;99117.19;105077;1270;61192;-22
2023/08/21 00:58:30;;;;;;;7.70;6.00;;;;;;;20.33;80.54;99117.64;104834;1266;74340;-22
2023/08/21 01:00:58;;;;;;;4.60;3.80;;;;;;;20.14;81.25;99116.25;104821;1267;76028;-22
2023/08/21 01:03:25;;;;;;;4.20;3.70;;;;;;;20.48;80.85;99118.85;104899;1266;74114;-22
2023/08/21 01:05:52;;;;;;;6.10;4.30;;;;;;;20.81;78.52;99119.96;104778;1268;61074;-22
2023/08/21 01:08:39;;;;;;;8.50;4.90;;;;;;;20.70;78.17;99121.10;104718;1266;61218;-22
2023/08/21 01:11:56;;;;;;;6.30;5.30;;;;;;;20.37;79.61;99122.48;104732;1267;74348;-23
2023/08/21 01:15:00;;;;;;;7.80;6.00;;;;;;;19.91;81.53;99126.51;105092;1269;75864;-22
2023/08/21 01:17:28;;;;;;;6.20;4.30;;;;;;;19.65;83.70;99126.89;104732;1266;74012;-22
2023/08/21 01:19:56;;;;;;;7.90;4.50;;;;;;;20.02;82.49;99128.68;104738;1267;61919;-24
2023/08/21 01:22:27;;;;;;;8.60;5.30;;;;;;;20.18;81.26;99130.36;104800;1267;62206;-22
2023/08/21 01:24:55;;;;;;;10.90;5.90;;;;;;;20.03;81.55;99131.13;104606;1272;74483;-21
2023/08/21 01:27:22;;;;;;;8.20;6.30;;;;;;;19.80;82.62;99134.32;104783;1280;75954;-22
2023/08/21 01:29:50;;;;;;;7.30;4.70;;;;;;;19.58;83.96;99135.48;105051;1269;74157;-22
2023/08/21 01:32:47;;;;;;;6.30;5.00;;;;;;;19.92;83.28;99137.86;104907;1269;61612;-22
2023/08/21 01:35:14;;;;;;;8.10;5.50;;;;;;;20.32;80.94;99138.54;104861;1263;61078;-22
2023/08/21 01:37:41;;;;;;;6.70;6.00;;;;;;;20.25;80.45;99140.98;105163;1267;73157;-22
2023/08/21 01:40:09;;;;;;;7.00;5.90;;;;;;;20.01;81.07;99135.30;104824;1271;74896;-21
2023/08/21 01:42:39;;;;;;;7.10;5.90;;;;;;;19.77;81.44;99135.51;104807;1267;73131;-22
2023/08/21 01:45:07;;;;;;;6.00;4.60;;;;;;;19.56;83.04;99132.70;104576;1266;61924;-21
2023/08/21 01:47:34;;;;;;;11.10;5.90;;;;;;;19.93;82.85;99131.73;104531;1270;61775;-22
2023/08/21 01:50:02;;;;;;;6.60;5.90;;;;;;;20.32;81.39;99133.81;104809;1268;74446;-22
2023/08/21 01:52:30;;;;;;;8.70;6.00;;;;;;;20.31;80.99;99136.88;104807;1266;75713;-22
2023/08/21 01:54:58;;;;;;;7.20;6.50;;;;;;;20.11;81.21;99137.53;104759;1267;74073;-22
2023/08/21 01:57:25;;;;;;;12.60;7.30;;;;;;;19.88;81.78;99138.52;104510;1272;62009;-22
2023/08/21 01:59:53;;;;;;;7.40;4.80;;;;;;;19.69;82.98;99136.89;104828;1272;61680;-22
2023/08/21 02:02:20;;;;;;;5.60;4.80;;;;;;;20.05;82.98;99139.15;104835;1266;74433;-21
2023/08/21 02:04:48;;;;;;;6.40;5.30;;;;;;;20.44;80.83;99139.94;104817;1272;75829;-22
2023/08/21 02:07:16;;;;;;;9.40;6.00;;;;;;;20.38;79.95;99135.88;104877;1267;74297;-21
2023/08/21 02:09:43;;;;;;;7.50;6.70;;;;;;;20.13;81.34;99137.52;104791;1273;61070;-22
2023/08/21 02:12:10;;;;;;;8.70;7.30;;;;;;;19.86;83.06;99141.16;104944;1269;61180;-22
2023/08/21 02:14:38;;;;;;;6.80;5.10;;;;;;;19.66;84.49;99138.56;104903;1267;72903;-22
2023/08/21 02:17:05;;;;;;;8.30;5.70;;;;;;;20.00;84.49;99137.96;104702;1266;74435;-22
2023/08/21 02:19:33;;;;;;;13.90;6.40;;;;;;;20.33;82.80;99135.56;104820;1271;74451;-22
2023/08/21 02:22:00;;;;;;;8.30;7.40;;;;;;;20.31;82.44;99135.77;105342;1262;61017;-22
2023/08/21 02:24:27;;;;;;;8.90;6.90;;;;;;;20.12;83.31;99133.42;105156;1262;61701;-22
2023/08/21 02:26:55;;;;;;;8.80;7.20;;;;;;;19.88;84.29;99133.04;105627;1257;72809;-21
2023/08/21 02:29:23;;;;;;;8.90;5.40;;;;;;;19.69;85.62;99130.63;105305;1265;75874;-22
2023/08/21 02:31:51;;;;;;;6.30;5.60;;;;;;;20.07;85.12;99130.45;105576;1257;74323;-22
2023/08/21 02:34:18;;;;;;;9.20;6.80;;;;;;;20.39;82.88;99139.14;105468;1257;61510;-22
2023/08/21 02:36:46;;;;;;;11.30;7.50;;;;;;;20.29;82.80;99138.02;105197;1263;61751;-22
2023/08/21 02:39:14;;;;;;;10.60;7.70;;;;;;;20.06;84.13;99135.31;105241;1261;74681;-22
2023/08/21 02:41:42;;;;;;;9.30;8.40;;;;;;;19.81;85.25;99137.58;105302;1261;76314;-22
2023/08/21 02:44:09;;;;;;;7.60;6.30;;;;;;;19.63;86.62;99138.80;105596;1260;72021;-22
2023/08/21 02:46:36;;;;;;;8.90;7.00;;;;;;;20.01;86.14;99142.64;105393;1263;61835;-22
2023/08/21 02:49:03;;;;;;;14.90;6.90;;;;;;;20.33;84.19;99138.44;105413;1263;61103;-22
2023/08/21 02:51:31;;;;;;;10.30;7.10;;;;;;;20.27;83.66;99138.90;105510;1257;72934;-22
2023/08/21 02:53:58;;;;;;;10.60;7.40;;;;;;;20.06;84.33;99137.27;105277;1256;74901;-22
2023/08/21 02:56:25;;;;;;;7.30;5.10;;;;;;;19.83;85.20;99132.70;105634;1262;72522;-22
2023/08/21 02:58:52;;;;;;;7.50;6.60;;;;;;;20.08;85.25;99130.42;105634;1257;61835;-22
2023/08/21 03:01:20;;;;;;;9.70;6.60;;;;;;;20.37;83.46;99135.00;105614;1262;61794;-22
2023/08/21 03:03:48;;;;;;;9.30;7.40;;;;;;;20.28;83.09;99138.33;105609;1263;73390;-22
2023/08/21 03:06:16;;;;;;;8.90;7.90;;;;;;;20.04;84.03;99134.97;105480;1262;74497;-21
2023/08/21 03:08:43;;;;;;;11.10;8.70;;;;;;;19.79;84.92;99141.30;105155;1263;72677;-23
2023/08/21 03:11:11;;;;;;;8.10;6.10;;;;;;;19.57;86.73;99138.92;105258;1262;63520;-22
2023/08/21 03:13:39;;;;;;;6.70;5.90;;;;;;;19.97;86.35;99131.94;105321;1267;61616;-22
2023/08/21 03:16:06;;;;;;;8.00;6.60;;;;;;;20.37;84.00;99130.21;105158;1265;73107;-22
2023/08/21 03:18:53;;;;;;;9.60;7.60;;;;;;;20.34;83.28;99132.66;105218;1263;75736;-22
2023/08/21 03:21:23;;;;;;;11.80;8.20;;;;;;;20.09;83.93;99129.01;105182;1264;73037;-22
2023/08/21 03:23:54;;;;;;;8.50;7.70;;;;;;;19.86;84.40;99130.38;105378;1264;61521;-22
2023/08/21 03:26:23;;;;;;;7.10;5.90;;;;;;;19.70;85.54;99131.13;105435;1262;61495;-21
2023/08/21 03:28:50;;;;;;;8.60;6.30;;;;;;;20.14;85.02;99128.66;105153;1265;73675;-22
2023/08/21 03:31:18;;;;;;;11.90;7.20;;;;;;;20.57;82.48;99129.13;105265;1262;74224;-22
2023/08/21 03:33:46;;;;;;;11.30;7.00;;;;;;;20.57;81.76;99126.52;105201;1262;74057;-22
2023/08/21 03:43:40;;;;;;;8.50;5.60;;;;;;;19.97;85.06;99122.04;102526;1293;616398;-22
2023/08/21 03:46:07;;;;;;;8.00;6.80;;;;;;;20.37;84.61;99118.95;105094;1267;61069;-22
2023/08/21 03:48:34;;;;;;;7.90;7.00;;;;;;;20.89;81.91;99114.17;105661;1254;61114;-22
2023/08/21 03:51:02;;;;;;;9.40;8.10;;;;;;;20.99;80.76;99115.84;105758;1254;72065;-22
2023/08/21 03:53:31;;;;;;;8.90;7.80;;;;;;;20.90;80.79;99114.91;105729;1254;75703;-22
2023/08/21 03:56:00;;;;;;;10.30;9.20;;;;;;;20.77;81.46;99118.70;103630;1258;2848640;-22
2023/08/21 03:58:28;;;;;;;9.80;5.90;;;;;;;20.66;82.33;99119.31;105719;1252;63709;-22
2023/08/21 04:00:55;;;;;;;8.30;7.00;;;;;;;21.12;81.04;99116.47;105997;1255;61938;-22
2023/08/21 04:03:24;;;;;;;11.20;8.20;;;;;;;21.55;78.54;99119.80;105975;1256;73656;-22
2023/08/21 04:05:56;;;;;;;9.60;8.50;;;;;;;21.59;77.84;99120.58;105932;1251;76197;-22
2023/08/21 04:08:23;;;;;;;15.20;10.10;;;;;;;21.40;78.35;99119.15;105869;1256;74079;-22
2023/08/21 04:10:54;;;;;;;13.80;9.80;;;;;;;21.19;79.18;99123.04;105963;1251;62198;-21
2023/08/21 04:13:21;;;;;;;9.30;7.40;;;;;;;21.09;80.03;99118.81;105972;1257;61246;-22
2023/08/21 04:15:49;;;;;;;11.50;8.10;;;;;;;21.52;79.08;99117.02;105550;1254;74172;-22
2023/08/21 04:18:16;;;;;;;9.30;7.90;;;;;;;21.87;77.47;99120.56;105575;1254;74330;-22
2023/08/21 04:21:04;;;;;;;9.70;8.50;;;;;;;21.84;77.40;99122.68;105653;1254;72448;-22
2023/08/21 04:23:31;;;;;;;14.20;8.80;;;;;;;21.70;78.03;99123.13;105621;1254;61119;-22
2023/08/21 04:26:02;;;;;;;14.50;8.90;;;;;;;21.57;78.72;99117.91;105842;1254;61087;-22
2023/08/21 04:28:30;;;;;;;11.40;6.60;;;;;;;21.48;79.51;99116.55;105644;1254;74700;-22
2023/08/21 04:30:58;;;;;;;9.30;7.40;;;;;;;21.92;78.40;99117.13;105656;1259;75915;-22
2023/08/21 04:33:28;;;;;;;9.60;8.30;;;;;;;22.25;77.19;99118.80;105758;1254;73458;-22
2023/08/21 04:35:55;;;;;;;10.30;8.80;;;;;;;22.29;76.61;99119.09;105601;1259;61217;-22
2023/08/21 04:38:22;;;;;;;9.40;8.50;;;;;;;22.16;77.02;99120.30;105872;1256;61141;-22
2023/08/21 04:40:51;;;;;;;10.70;9.30;;;;;;;22.04;77.65;99127.25;105721;1253;74299;-22
2023/08/21 04:43:18;;;;;;;9.40;6.50;;;;;;;21.99;78.48;99127.27;105863;1256;74293;-22
2023/08/21 04:45:50;;;;;;;11.30;8.70;;;;;;;22.43;76.94;99126.40;105600;1254;72519;-21
2023/08/21 04:48:19;;;;;;;9.30;7.50;;;;;;;22.71;75.50;99123.56;105678;1254;61131;-22
2023/08/21 04:50:46;;;;;;;11.20;8.40;;;;;;;22.74;75.13;99124.41;105744;1259;61789;-22
2023/08/21 04:53:14;;;;;;;9.80;8.00;;;;;;;22.61;75.99;99122.69;105843;1254;74381;-22
2023/08/21 04:55:42;;;;;;;11.30;8.10;;;;;;;22.59;76.22;99124.02;105840;1254;75637;-22
2023/08/21 04:58:10;;;;;;;8.60;6.50;;;;;;;22.54;76.76;99129.20;105702;1254;74029;-22
2023/08/21 05:00:38;;;;;;;9.90;7.70;;;;;;;23.03;75.28;99124.84;105675;1254;61149;-22
2023/08/21 05:03:08;;;;;;;9.20;7.70;;;;;;;23.43;73.73;99122.61;105764;1257;61888;-22
2023/08/21 05:05:37;;;;;;;9.00;7.60;;;;;;;23.48;73.30;99123.33;105674;1254;74433;-22
2023/08/21 05:08:05;;;;;;;12.30;8.40;;;;;;;23.46;73.93;99125.66;105763;1254;75657;-22
2023/08/21 05:10:33;;;;;;;10.50;7.80;;;;;;;23.47;73.73;99123.05;105712;1254;73186;-22
2023/08/21 05:13:00;;;;;;;10.60;8.30;;;;;;;23.47;73.67;99121.81;105841;1254;61154;-23
2023/08/21 05:15:28;;;;;;;7.80;6.50;;;;;;;23.57;74.10;99122.82;105703;1259;61761;-22
2023/08/21 05:17:56;;;;;;;7.90;6.80;;;;;;;24.10;72.44;99124.73;105740;1254;74739;-23
2023/08/21 05:20:23;;;;;;;9.00;7.40;;;;;;;24.53;70.85;99127.17;105577;1258;74908;-23
2023/08/21 05:22:51;;;;;;;9.20;7.70;;;;;;;24.65;70.35;99130.09;105640;1254;74391;-22
2023/08/21 05:25:19;;;;;;;9.40;8.40;;;;;;;24.64;70.42;99130.05;105709;1254;61919;-22
2023/08/21 05:27:47;;;;;;;12.00;8.80;;;;;;;24.53;70.61;99136.33;105689;1260;61581;-22
2023/08/21 05:30:15;;;;;;;13.50;8.70;;;;;;;24.43;71.38;99133.49;105761;1254;74458;-22
2023/08/21 05:32:42;;;;;;;9.60;8.30;;;;;;;24.44;71.87;99133.90;105672;1260;74178;-23
2023/08/21 05:35:10;;;;;;;8.90;5.90;;;;;;;24.44;71.68;99138.06;105658;1254;74198;-22
2023/08/21 05:37:37;;;;;;;9.60;6.90;;;;;;;25.01;70.39;99135.45;105629;1254;61166;-22
2023/08/21 05:40:07;;;;;;;8.50;7.20;;;;;;;25.49;68.37;99137.77;105817;1257;61742;-22
2023/08/21 05:42:35;;;;;;;9.30;7.90;;;;;;;25.43;67.68;99140.08;105659;1254;74628;-22
2023/08/21 05:45:04;;;;;;;8.90;8.00;;;;;;;25.22;68.33;99138.66;105821;1257;75815;-23
2023/08/21 05:47:32;;;;;;;15.90;8.70;;;;;;;24.99;69.30;99143.66;105704;1259;73159;-22
2023/08/21 05:50:00;;;;;;;11.50;8.50;;;;;;;24.87;69.91;99140.40;105810;1254;61182;-22
2023/08/21 05:52:27;;;;;;;15.10;8.50;;;;;;;24.91;69.87;99139.84;105763;1253;61676;-22
2023/08/21 05:54:55;;;;;;;10.00;8.80;;;;;;;24.89;70.12;99136.56;105748;1254;74352;-22
2023/08/21 05:57:22;;;;;;;7.50;6.30;;;;;;;24.85;70.34;99137.29;105821;1254;76111;-22
2023/08/21 05:59:51;;;;;;;18.90;7.80;;;;;;;25.15;69.40;99138.08;105855;1254;74172;-22
2023/08/21 06:02:19;;;;;;;12.10;7.80;;;;;;;25.55;67.95;99139.80;105708;1254;61877;-22
2023/08/21 06:04:46;;;;;;;11.90;8.00;;;;;;;25.66;67.37;99144.23;105860;1254;61510;-23
2023/08/21 06:07:14;;;;;;;11.90;8.30;;;;;;;25.61;67.42;99148.02;105849;1254;74555;-22
2023/08/21 06:09:42;;;;;;;11.10;7.90;;;;;;;25.51;67.81;99144.20;105870;1257;75983;-22
2023/08/21 06:12:09;;;;;;;11.00;8.60;;;;;;;25.43;68.57;99146.82;105832;1254;73851;-23
2023/08/21 06:14:37;;;;;;;10.20;9.10;;;;;;;25.36;68.94;99149.55;105740;1253;62373;-22
2023/08/21 06:17:05;;;;;;;10.30;9.30;;;;;;;25.22;69.00;99148.70;105707;1256;61607;-22
2023/08/21 06:19:33;;;;;;;7.50;6.70;;;;;;;25.17;69.39;99146.17;105724;1254;74471;-22
2023/08/21 06:22:00;;;;;;;9.90;7.60;;;;;;;25.64;68.34;99144.77;105797;1254;74884;-22
2023/08/21 06:24:27;;;;;;;13.40;7.50;;;;;;;26.03;66.22;99143.93;105837;1259;72725;-22
2023/08/21 06:27:01;;;;;;;8.60;7.60;;;;;;;26.08;65.91;99143.48;105782;1254;61728;-22
2023/08/21 06:29:29;;;;;;;8.50;7.60;;;;;;;26.02;66.26;99143.27;105660;1254;62223;-22
2023/08/21 06:31:56;;;;;;;13.40;8.80;;;;;;;26.02;66.67;99143.21;105823;1254;74562;-22
2023/08/21 06:34:24;;;;;;;9.70;8.70;;;;;;;25.97;66.30;99146.14;105871;1254;75838;-23
2023/08/21 06:36:52;;;;;;;9.10;8.20;;;;;;;25.97;66.56;99144.79;105545;1254;73005;-23
2023/08/21 06:39:19;;;;;;;10.70;8.70;;;;;;;25.86;66.62;99146.89;105623;1254;61246;-22
2023/08/21 06:41:46;;;;;;;12.00;8.60;;;;;;;25.81;67.33;99147.85;105549;1254;61795;-22
2023/08/21 06:44:18;;;;;;;13.00;9.40;;;;;;;25.83;67.17;99146.79;105585;1254;73096;-23
2023/08/21 06:46:45;;;;;;;10.40;9.40;;;;;;;25.80;67.47;99146.11;105809;1259;74332;-24
2023/08/21 06:49:12;;;;;;;8.40;6.40;;;;;;;25.92;67.16;99153.02;105768;1254;72823;-22
2023/08/21 06:51:39;;;;;;;8.40;6.90;;;;;;;26.45;65.35;99153.96;105768;1254;61143;-23
2023/08/21 06:54:06;;;;;;;8.20;7.40;;;;;;;26.97;64.06;99151.23;105841;1255;61818;-22
2023/08/21 06:56:34;;;;;;;10.00;7.90;;;;;;;27.19;62.98;99151.70;105624;1254;73300;-22
2023/08/21 06:59:02;;;;;;;10.00;8.90;;;;;;;27.26;62.31;99152.23;105884;1254;75762;-22
2023/08/21 07:01:29;;;;;;;10.20;8.90;;;;;;;27.13;62.64;99150.48;105834;1254;74394;-22
2023/08/21 07:03:57;;;;;;;11.00;8.70;;;;;;;27.01;63.27;99152.89;105856;1254;61517;-22
2023/08/21 07:06:28;;;;;;;10.40;8.40;;;;;;;27.03;63.25;99150.04;105850;1259;61764;-22
2023/08/21 07:08:55;;;;;;;13.10;8.10;;;;;;;27.02;62.91;99150.27;105489;1254;73776;-22
2023/08/21 07:11:23;;;;;;;8.60;7.80;;;;;;;26.98;62.62;99145.58;105732;1259;75872;-22
2023/08/21 07:13:50;;;;;;;17.60;8.70;;;;;;;26.89;62.89;99146.50;105531;1254;74484;-22
2023/08/21 07:16:18;;;;;;;14.50;8.60;;;;;;;26.84;63.12;99147.14;105794;1254;61653;-22
2023/08/21 07:18:45;;;;;;;11.30;7.90;;;;;;;26.88;64.07;99146.42;105698;1255;61164;-23
2023/08/21 07:21:12;;;;;;;11.70;7.90;;;;;;;26.92;62.90;99148.45;105786;1254;74435;-22
2023/08/21 07:23:59;;;;;;;10.10;7.90;;;;;;;26.96;62.99;99150.02;105637;1254;74400;-22
2023/08/21 07:26:27;;;;;;;11.50;8.20;;;;;;;27.04;62.89;99152.16;105598;1254;72686;-22
2023/08/21 07:28:54;;;;;;;14.80;7.60;;;;;;;27.08;63.04;99152.33;105532;1254;61004;-23
2023/08/21 07:31:22;;;;;;;13.00;8.00;;;;;;;27.25;62.01;99152.58;105498;1259;61173;-22
2023/08/21 07:33:50;;;;;;;9.30;8.50;;;;;;;27.20;62.27;99150.58;105497;1254;72953;-22
2023/08/21 07:36:17;;;;;;;9.80;8.80;;;;;;;27.11;62.49;99147.45;105784;1258;74493;-22
2023/08/21 07:38:45;;;;;;;11.70;8.30;;;;;;;27.12;62.20;99149.83;105616;1254;74240;-22
2023/08/21 07:41:12;;;;;;;11.10;7.50;;;;;;;27.18;61.74;99149.21;105820;1254;62124;-22
2023/08/21 07:43:41;;;;;;;12.90;7.60;;;;;;;27.27;61.25;99148.60;105658;1255;61164;-21
2023/08/21 07:46:12;;;;;;;10.60;8.40;;;;;;;27.42;60.12;99146.70;105692;1254;74733;-22
2023/08/21 07:48:39;;;;;;;10.50;8.00;;;;;;;27.62;59.79;99149.98;105713;1260;74490;-22
2023/08/21 07:51:06;;;;;;;8.50;7.70;;;;;;;27.75;59.47;99146.73;105824;1257;71466;-22
2023/08/21 07:53:34;;;;;;;8.50;7.60;;;;;;;27.91;58.95;99146.28;105689;1254;61484;-22
2023/08/21 07:56:03;;;;;;;9.70;7.50;;;;;;;27.92;57.94;99143.84;105518;1253;61739;-23
2023/08/21 07:58:31;;;;;;;9.10;7.70;;;;;;;27.84;58.40;99144.65;105444;1259;75067;-22
2023/08/21 08:00:59;;;;;;;8.40;7.40;;;;;;;28.01;57.87;99141.67;105806;1253;75918;-22
2023/08/21 08:03:26;;;;;;;8.10;6.80;;;;;;;28.12;56.96;99141.78;105703;1254;73954;-22
2023/08/21 08:05:53;;;;;;;7.00;6.30;;;;;;;28.33;55.46;99143.69;105680;1254;61233;-21
2023/08/21 08:08:22;;;;;;;6.90;6.20;;;;;;;28.47;54.71;99141.99;105877;1253;61181;-21
2023/08/21 08:10:49;;;;;;;6.60;5.90;;;;;;;28.61;54.66;99144.81;105702;1254;73873;-22
2023/08/21 08:13:17;;;;;;;7.40;6.10;;;;;;;28.64;54.16;99141.50;105559;1254;74195;-21
2023/08/21 08:15:44;;;;;;;7.40;6.40;;;;;;;28.74;54.08;99140.65;105657;1259;72768;-21
2023/08/21 08:18:12;;;;;;;7.40;6.70;;;;;;;28.92;53.31;99141.58;105725;1254;61567;-21
2023/08/21 08:20:40;;;;;;;9.90;5.60;;;;;;;28.93;53.19;99138.35;105828;1257;61849;-22
2023/08/21 08:23:07;;;;;;;6.40;5.80;;;;;;;29.19;53.14;99136.54;105585;1254;73986;-25
2023/08/21 08:25:35;;;;;;;8.10;6.00;;;;;;;29.44;51.83;99138.30;105566;1254;76139;-23
2023/08/21 08:28:03;;;;;;;6.20;5.70;;;;;;;29.58;51.79;99142.93;105587;1254;73204;-23
2023/08/21 08:30:31;;;;;;;5.80;5.30;;;;;;;29.70;51.27;99136.65;105516;1254;61803;-23
2023/08/21 08:32:58;;;;;;;6.90;5.20;;;;;;;29.92;50.25;99139.84;105589;1259;61156;-23
2023/08/21 08:35:25;;;;;;;5.40;4.90;;;;;;;29.89;49.38;99137.20;105701;1254;66595;-23
2023/08/21 08:37:53;;;;;;;5.60;4.90;;;;;;;29.69;48.81;99140.11;105764;1257;75732;-24
2023/08/21 08:40:21;;;;;;;8.70;5.30;;;;;;;29.92;48.21;99143.23;105543;1259;72680;-23
2023/08/21 08:42:49;;;;;;;5.40;4.80;;;;;;;30.11;47.24;99143.73;105544;1254;61065;-23
2023/08/21 08:45:16;;;;;;;8.00;4.70;;;;;;;30.21;47.02;99137.73;105809;1254;61160;-23
2023/08/21 08:47:44;;;;;;;5.70;4.80;;;;;;;30.18;46.67;99137.20;105659;1260;65934;-23
2023/08/21 08:50:11;;;;;;;6.60;4.60;;;;;;;30.14;46.68;99138.02;105681;1254;75949;-21
2023/08/21 08:52:39;;;;;;;6.40;4.40;;;;;;;30.16;46.20;99135.04;105775;1254;63850;-22
2023/08/21 08:55:08;;;;;;;5.90;4.60;;;;;;;30.22;46.15;99133.27;105653;1260;61710;-21
2023/08/21 08:57:35;;;;;;;5.50;4.80;;;;;;;30.35;46.95;99138.14;105539;1254;61064;-21
2023/08/21 09:00:04;;;;;;;4.90;4.50;;;;;;;30.41;46.19;99141.77;105938;1254;73721;-22
2023/08/21 09:02:31;;;;;;;5.70;5.10;;;;;;;30.47;46.29;99128.56;105701;1254;66562;-22
2023/08/21 09:04:58;;;;;;;5.30;4.80;;;;;;;30.44;46.41;99136.49;105884;1254;63925;-24
2023/08/21 09:07:26;;;;;;;5.20;4.70;;;;;;;30.40;46.36;99137.31;105716;1254;61124;-23
2023/08/21 09:09:53;;;;;;;6.30;4.60;;;;;;;30.70;46.68;99135.98;105824;1258;61134;-22
2023/08/21 09:12:21;;;;;;;5.30;4.80;;;;;;;30.85;45.79;99132.40;105875;1257;66708;-22
2023/08/21 09:14:49;;;;;;;7.40;4.80;;;;;;;30.97;45.25;99135.17;105829;1259;67006;-23
2023/08/21 09:17:16;;;;;;;5.40;4.80;;;;;;;30.78;45.13;99138.64;105887;1259;65167;-22
2023/08/21 09:19:44;;;;;;;6.20;4.80;;;;;;;30.68;45.55;99138.39;105710;1258;61182;-23
2023/08/21 09:22:18;;;;;;;7.40;4.50;;;;;;;30.94;44.42;99130.52;105869;1254;61196;-22
2023/08/21 09:25:06;;;;;;;8.50;5.10;;;;;;;31.00;44.29;99130.35;105580;1259;66776;-22
2023/08/21 09:27:35;;;;;;;8.00;5.10;;;;;;;31.21;44.52;99130.04;105805;1256;66186;-22
2023/08/21 09:30:09;;;;;;;6.70;4.20;;;;;;;31.27;44.06;99126.69;105693;1260;63955;-23
2023/08/21 09:32:52;;;;;;;;;;;;;;;31.33;44.38;99128.16;105705;1254;61163;-23
2023/08/21 09:35:20;;;;;;;6.20;4.60;;;;;;;31.41;44.04;99122.98;105715;1255;61100;-23
2023/08/21 09:37:47;;;;;;;4.80;4.00;;;;;;;31.42;43.79;99119.55;105887;1255;66654;-23
2023/08/21 09:40:16;;;;;;;5.90;4.80;;;;;;;31.49;43.72;99121.25;105852;1254;66827;-23
2023/08/21 09:42:43;;;;;;;7.50;5.10;;;;;;;31.46;43.90;99118.05;105729;1254;62853;-23
2023/08/21 09:45:10;;;;;;;7.40;4.60;;;;;;;31.31;43.73;99126.11;105879;1257;61049;-23
2023/08/21 09:47:40;;;;;;;5.10;4.50;;;;;;;31.05;44.16;99122.65;105810;1259;61086;-23
2023/08/21 09:50:09;;;;;;;7.70;4.50;;;;;;;30.59;45.06;99122.88;105784;1254;66583;-23
2023/08/21 09:52:36;;;;;;;12.40;5.10;;;;;;;30.13;46.72;99124.42;105798;1254;67217;-22
2023/08/21 09:55:04;;;;;;;6.30;4.50;;;;;;;29.93;47.36;99128.13;105639;1254;65536;-23
2023/08/21 09:57:32;;;;;;;5.10;4.60;;;;;;;29.72;47.82;99123.30;105550;1254;61008;-22
2023/08/21 09:59:59;;;;;;;6.30;5.00;;;;;;;29.95;48.18;99124.11;105834;1254;61520;-23
2023/08/21 10:02:28;;;;;;;6.50;4.40;;;;;;;30.31;45.31;99123.32;105667;1254;75400;-22
2023/08/21 10:04:55;;;;;;;6.80;4.50;;;;;;;30.69;43.97;99122.92;105843;1266;75793;-22
2023/08/21 10:07:24;;;;;;;8.30;4.30;;;;;;;30.73;42.86;99119.41;105855;1254;65454;-22
2023/08/21 10:09:51;;;;;;;6.50;3.90;;;;;;;31.10;42.03;99115.27;105547;1259;61096;-23
2023/08/21 10:12:20;;;;;;;5.70;4.00;;;;;;;31.38;41.12;99110.75;105697;1256;61077;-22
2023/08/21 10:14:48;;;;;;;6.30;4.50;;;;;;;31.64;40.45;99109.04;105599;1254;66695;-23
2023/08/21 10:17:15;;;;;;;8.00;4.10;;;;;;;31.92;39.97;99106.58;105837;1254;67175;-22
2023/08/21 10:19:53;;;;;;;5.80;4.30;;;;;;;32.31;39.08;99105.80;105845;1254;65382;-22
2023/08/21 10:22:45;;;;;;;4.90;3.70;;;;;;;32.37;38.67;99103.80;105591;1254;60959;-23
2023/08/21 10:25:19;;;;;;;7.10;4.10;;;;;;;32.30;38.78;99103.42;105454;1258;61098;-22
2023/08/21 10:27:52;;;;;;;5.30;3.60;;;;;;;32.63;37.69;99105.49;105703;1254;66778;-23
2023/08/21 10:30:21;;;;;;;4.00;3.40;;;;;;;32.99;37.46;99102.67;105694;1260;64667;-23
2023/08/21 10:32:51;;;;;;;6.20;3.80;;;;;;;33.12;37.33;99095.80;105637;1260;64379;-23
2023/08/21 10:35:20;;;;;;;7.20;3.70;;;;;;;33.13;36.47;99097.09;105609;1260;61062;-23
2023/08/21 10:38:07;;;;;;;4.40;3.50;;;;;;;33.20;36.15;99093.73;105630;1254;61187;-23
2023/08/21 10:40:35;;;;;;;6.70;3.80;;;;;;;33.36;36.11;99092.94;105721;1260;66768;-23
2023/08/21 10:43:03;;;;;;;3.80;3.30;;;;;;;33.37;35.99;99087.97;105637;1264;74417;-23
2023/08/21 10:45:30;;;;;;;7.50;3.80;;;;;;;33.34;36.86;99084.09;105739;1259;62630;-23
2023/08/21 10:48:01;;;;;;;4.20;3.80;;;;;;;33.33;36.62;99084.78;105866;1259;61045;-23
2023/08/21 10:50:29;;;;;;;8.70;3.80;;;;;;;32.89;36.47;99084.19;105684;1258;61121;-23
2023/08/21 10:52:56;;;;;;;5.60;3.40;;;;;;;32.63;36.10;99081.79;105877;1254;66817;-23
2023/08/21 10:55:23;;;;;;;9.30;3.90;;;;;;;32.93;36.17;99081.82;105706;1259;67175;-24
2023/08/21 10:57:51;;;;;;;5.60;3.60;;;;;;;33.26;36.03;99076.66;105773;1259;64161;-23
2023/08/21 11:00:18;;;;;;;5.80;3.90;;;;;;;33.24;35.57;99075.76;105860;1254;61083;-23
2023/08/21 11:02:46;;;;;;;3.70;3.00;;;;;;;33.39;35.82;99073.80;105807;1259;61166;-23
2023/08/21 11:05:15;;;;;;;4.00;3.30;;;;;;;33.67;34.81;99082.83;105698;1254;66781;-23
2023/08/21 11:07:44;;;;;;;6.30;3.80;;;;;;;33.42;34.85;99083.02;105727;1259;65516;-23
2023/08/21 11:10:16;;;;;;;4.20;3.20;;;;;;;33.47;34.63;99081.67;105441;1264;64709;-23
2023/08/21 11:12:52;;;;;;;4.20;3.30;;;;;;;33.89;33.39;99077.75;105423;1260;61147;-23
2023/08/21 11:15:19;;;;;;;4.00;3.70;;;;;;;33.94;33.82;99077.23;105672;1259;61119;-23
2023/08/21 11:18:02;;;;;;;4.20;3.00;;;;;;;33.69;33.71;99077.90;105803;1254;66608;-23
2023/08/21 11:20:33;;;;;;;5.30;3.60;;;;;;;33.66;34.02;99072.20;105633;1259;67247;-24
2023/08/21 11:23:06;;;;;;;7.80;3.30;;;;;;;33.75;33.94;99069.94;105699;1254;63777;-23
2023/08/21 11:25:34;;;;;;;8.20;3.40;;;;;;;33.79;34.44;99071.48;105591;1260;61186;-23
2023/08/21 11:28:02;;;;;;;6.40;3.40;;;;;;;33.94;34.48;99074.16;105768;1257;61870;-23
2023/08/21 11:30:32;;;;;;;10.80;3.70;;;;;;;33.85;34.69;99074.36;105682;1254;73785;-23
2023/08/21 11:33:10;;;;;;;3.60;3.30;;;;;;;33.63;34.33;99068.37;105476;1260;67097;-23
2023/08/21 11:35:38;;;;;;;4.30;3.40;;;;;;;32.92;35.46;99067.52;105678;1259;65582;-23
2023/08/21 11:38:06;;;;;;;3.50;3.20;;;;;;;33.06;35.65;99071.65;105845;1254;61059;-23
2023/08/21 11:40:36;;;;;;;4.40;3.50;;;;;;;33.22;35.57;99068.15;105714;1260;61046;-23